Time;durP1;ratioP1;P1;durP2;ratioP2;P2;SDS_P1;SDS_P2;PMS_P1;PMS_P2;Temp;Humidity;BMP_temperature;BMP_pressure;BME280_temperature;BME280_humidity;BME280_pressure;Samples;Min_cycle;Max_cycle;Signal;HPM_P1;HPM_P2
2022/07/29 00:00:58;;;;;;;;;17.00;14.00;;;;;27.48;54.83;100704.00;146605;575;47010;-67
2022/07/29 00:03:50;;;;;;;;;16.25;13.25;;;;;27.50;56.11;100698.63;146603;611;46034;-67
2022/07/29 00:06:43;;;;;;;;;17.00;14.25;;;;;27.51;55.14;100695.03;146605;587;46010;-67
2022/07/29 00:09:35;;;;;;;;;14.25;14.25;;;;;27.54;53.15;100689.66;146604;724;46012;-67
2022/07/29 00:12:29;;;;;;;;;6.00;3.75;;;;;27.60;52.97;100695.75;146604;569;46020;-67
2022/07/29 00:15:21;;;;;;;;;12.50;12.50;;;;;27.69;52.58;100693.81;146602;583;46017;-66
2022/07/29 00:18:26;;;;;;;;;13.00;12.25;;;;;27.76;52.29;100700.78;146603;598;46020;-66
2022/07/29 00:21:54;;;;;;;;;16.25;15.25;;;;;27.79;50.63;100701.63;146604;594;46016;-65
2022/07/29 00:24:46;;;;;;;;;16.50;13.75;;;;;27.78;51.12;100705.19;146605;573;46012;-67
2022/07/29 00:27:39;;;;;;;;;13.00;13.00;;;;;27.74;49.91;100697.28;146604;589;46037;-68
2022/07/29 00:30:31;;;;;;;;;16.00;14.00;;;;;27.75;49.62;100693.69;146604;696;46011;-67
2022/07/29 00:33:35;;;;;;;;;14.00;13.75;;;;;27.70;49.00;100696.47;146604;569;46012;-66
2022/07/29 00:37:06;;;;;;;;;14.75;14.75;;;;;27.60;47.56;100700.19;146608;641;46010;-66
2022/07/29 00:39:59;;;;;;;;;13.75;13.75;;;;;27.52;48.39;100695.03;146604;563;46016;-66
2022/07/29 00:42:53;;;;;;;;;13.25;12.25;;;;;27.51;48.14;100690.63;146607;578;46020;-65
2022/07/29 00:45:45;;;;;;;;;14.75;13.50;;;;;27.50;49.86;100701.28;146602;583;46924;-65
2022/07/29 00:48:37;;;;;;;;;13.50;12.75;;;;;27.49;49.53;100708.41;146606;650;46010;-66
2022/07/29 00:51:31;;;;;;;;;14.50;14.25;;;;;27.49;48.59;100710.19;146607;593;46012;-69
2022/07/29 00:54:23;;;;;;;;;13.25;13.00;;;;;27.50;48.88;100707.47;146608;563;46010;-65
2022/07/29 00:57:16;;;;;;;;;11.25;10.00;;;;;27.55;48.48;100712.72;146604;563;46014;-67
2022/07/29 01:00:10;;;;;;;;;11.25;11.25;;;;;27.60;48.52;100702.84;146604;680;46011;-65
2022/07/29 01:03:02;;;;;;;;;16.50;14.00;;;;;27.54;49.27;100701.22;146603;694;46016;-67
2022/07/29 01:05:56;;;;;;;;;14.50;13.50;;;;;27.38;49.97;100705.03;146606;642;46020;-67
2022/07/29 01:08:49;;;;;;;;;14.75;13.50;;;;;26.18;50.16;100523.50;146624;577;46016;-66
2022/07/29 01:11:42;;;;;;;;;13.50;13.00;;;;;27.10;50.36;100700.19;146630;577;45010;-66
2022/07/29 01:14:35;;;;;;;;;13.75;13.00;;;;;27.04;50.41;100704.72;146624;586;45017;-67
2022/07/29 01:17:56;;;;;;;;;14.75;14.25;;;;;27.00;50.36;100703.91;146625;613;45020;-67
2022/07/29 01:21:28;;;;;;;;;17.25;14.00;;;;;24.88;49.21;100344.84;146627;698;45013;-68
2022/07/29 01:24:47;;;;;;;;;14.25;14.25;;;;;26.92;49.36;100712.03;146627;603;45020;-68
2022/07/29 01:28:24;;;;;;;;;16.50;15.00;;;;;25.77;48.47;100514.34;146626;642;45013;-69
2022/07/29 01:31:20;;;;;;;;;15.75;14.75;;;;;26.91;49.50;100704.06;146626;618;45020;-69
2022/07/29 01:34:19;;;;;;;;;13.50;12.25;;;;;26.93;49.98;100708.44;146627;583;45923;-69
2022/07/29 01:37:26;;;;;;;;;12.50;12.25;;;;;26.91;49.22;100707.59;146628;676;45031;-69
2022/07/29 01:40:29;;;;;;;;;13.25;13.00;;;;;26.94;49.12;100707.53;146626;582;45923;-67
2022/07/29 01:43:35;;;;;;;;;12.25;11.75;;;;;27.02;48.83;100707.44;146631;612;45010;-68
2022/07/29 01:46:38;;;;;;;;;12.50;12.50;;;;;27.08;48.89;100707.31;146625;573;46014;-69
2022/07/29 01:49:34;;;;;;;;;13.00;12.75;;;;;27.11;49.06;100704.59;146627;597;45923;-68
2022/07/29 01:52:37;;;;;;;;;14.25;13.25;;;;;27.13;48.86;100704.56;146628;607;45031;-68
2022/07/29 01:55:48;;;;;;;;;12.00;11.75;;;;;27.13;48.92;100716.13;146626;608;45020;-67
2022/07/29 01:58:44;;;;;;;;;12.25;11.50;;;;;27.10;48.74;100713.50;146624;570;46017;-67
2022/07/29 02:01:37;;;;;;;;;17.75;15.25;;;;;27.09;48.86;100714.41;146627;604;46010;-66
2022/07/29 02:04:31;;;;;;;;;14.25;13.50;;;;;27.08;49.32;100728.63;146625;604;46923;-63
2022/07/29 02:07:25;;;;;;;;;14.75;13.25;;;;;27.02;49.75;100720.72;146617;667;45924;-64
2022/07/29 02:10:20;;;;;;;;;13.00;12.50;;;;;26.99;49.63;100720.78;146603;642;46016;-66
2022/07/29 02:13:15;;;;;;;;;17.25;15.25;;;;;26.99;50.24;100726.09;146607;571;46010;-67
2022/07/29 02:16:10;;;;;;;;;16.00;16.00;;;;;26.96;50.74;100728.81;146602;585;47014;-66
2022/07/29 02:19:05;;;;;;;;;15.75;15.75;;;;;26.85;50.77;100726.31;146606;575;46029;-66
2022/07/29 02:22:00;;;;;;;;;16.50;15.00;;;;;26.77;50.28;100728.22;146603;646;46924;-67
2022/07/29 02:24:54;;;;;;;;;17.75;13.75;;;;;26.75;50.63;100723.81;146605;565;46010;-66
2022/07/29 02:27:47;;;;;;;;;15.00;14.00;;;;;26.76;50.88;100726.47;146604;572;46012;-66
2022/07/29 02:30:46;;;;;;;;;15.50;15.00;;;;;26.79;50.33;100726.44;146606;573;46020;-67
2022/07/29 02:33:39;;;;;;;;;17.00;13.00;;;;;26.81;51.40;100721.06;146604;570;46031;-66
2022/07/29 02:36:33;;;;;;;;;12.25;12.25;;;;;26.83;50.76;100727.25;146604;569;46021;-67
2022/07/29 02:39:31;;;;;;;;;13.25;13.00;;;;;26.88;51.04;100730.72;146602;589;46923;-67
2022/07/29 02:42:59;;;;;;;;;13.50;11.75;;;;;26.91;50.02;100720.88;146607;569;46020;-66
2022/07/29 02:45:55;;;;;;;;;13.50;12.00;;;;;26.91;51.23;100718.22;146604;565;47012;-67
2022/07/29 02:49:08;;;;;;;;;17.50;13.50;;;;;26.86;51.99;100717.44;146609;619;46010;-66
2022/07/29 02:52:07;;;;;;;;;14.75;14.75;;;;;26.79;51.52;100721.13;146604;596;46035;-66
2022/07/29 02:55:04;;;;;;;;;15.00;14.00;;;;;26.76;51.96;100721.16;146603;642;46020;-66
2022/07/29 02:58:28;;;;;;;;;15.00;14.00;;;;;26.72;52.26;100707.00;146605;595;46014;-66
2022/07/29 03:01:28;;;;;;;;;13.50;12.00;;;;;26.69;51.22;100728.31;146605;685;46022;-66
2022/07/29 03:04:57;;;;;;;;;;;;;;;;;;;;;
2022/07/29 03:11:49;;;;;;;;;10.50;10.50;;;;;26.85;50.89;100726.31;146608;571;47012;-67
2022/07/29 03:14:42;;;;;;;;;14.00;14.00;;;;;26.94;51.13;100725.28;146606;640;46010;-67
2022/07/29 03:17:36;;;;;;;;;15.00;15.00;;;;;26.99;51.58;100734.09;146603;596;46925;-67
2022/07/29 03:20:29;;;;;;;;;15.00;14.25;;;;;26.97;51.17;100730.56;146608;626;46020;-66
2022/07/29 03:23:27;;;;;;;;;15.50;14.00;;;;;26.96;50.50;100739.47;146605;634;46012;-67
2022/07/29 03:26:20;;;;;;;;;14.00;14.00;;;;;27.04;50.84;100741.97;146605;580;46010;-67
2022/07/29 03:29:12;;;;;;;;;11.50;11.50;;;;;27.09;51.18;100741.00;146604;664;46016;-67
2022/07/29 03:32:09;;;;;;;;;18.75;16.00;;;;;27.08;51.58;100733.94;146605;620;46029;-68
2022/07/29 03:35:01;;;;;;;;;15.75;15.25;;;;;27.00;51.23;100730.50;146604;679;46031;-65
2022/07/29 03:38:27;;;;;;;;;14.50;14.50;;;;;26.90;51.12;100731.56;146609;658;46010;-65
2022/07/29 03:41:22;;;;;;;;;15.50;14.50;;;;;25.89;52.27;100563.81;146602;574;46017;-66
2022/07/29 03:44:16;;;;;;;;;17.00;14.50;;;;;26.71;53.02;100733.62;146604;570;46020;-67
2022/07/29 03:47:31;;;;;;;;;15.00;15.00;;;;;26.58;51.63;100726.75;146606;599;45017;-65
2022/07/29 03:50:25;;;;;;;;;18.75;17.75;;;;;26.58;52.17;100729.41;146604;564;46028;-65
2022/07/29 03:53:17;;;;;;;;;17.00;14.75;;;;;26.63;52.81;100727.53;146602;650;46016;-67
2022/07/29 03:56:10;;;;;;;;;17.50;15.00;;;;;26.66;53.31;100732.81;146607;627;46029;-66
2022/07/29 03:59:04;;;;;;;;;15.25;14.25;;;;;26.62;53.01;100732.00;146605;634;46925;-65
2022/07/29 04:02:01;;;;;;;;;14.25;13.75;;;;;26.60;52.42;100735.56;146608;578;46020;-68
2022/07/29 04:04:54;;;;;;;;;17.00;16.00;;;;;26.61;52.99;100740.88;146605;576;47012;-66
2022/07/29 04:07:53;;;;;;;;;17.25;16.50;;;;;26.62;53.42;100757.72;146606;586;46010;-65
2022/07/29 04:10:45;;;;;;;;;21.25;19.25;;;;;26.58;53.90;100771.97;146606;625;46926;-66
2022/07/29 04:13:53;;;;;;;;;15.50;15.50;;;;;26.51;52.23;100764.94;146606;591;46020;-65
2022/07/29 04:17:01;;;;;;;;;19.25;15.75;;;;;26.49;54.08;100763.19;146606;629;46012;-66
2022/07/29 04:19:53;;;;;;;;;18.75;17.00;;;;;26.50;53.14;100766.72;146609;599;46010;-65
2022/07/29 04:22:45;;;;;;;;;17.25;16.00;;;;;26.57;53.51;100767.53;146604;566;47014;-65
2022/07/29 04:25:40;;;;;;;;;18.50;17.50;;;;;26.62;54.03;100771.00;146608;581;46021;-65
2022/07/29 04:28:33;;;;;;;;;17.50;15.50;;;;;26.69;53.88;100780.66;146603;573;46012;-64
2022/07/29 04:31:26;;;;;;;;;19.25;15.75;;;;;26.75;53.78;100766.37;146604;635;46020;-64
2022/07/29 04:34:18;;;;;;;;;18.00;14.25;;;;;26.83;53.94;100777.81;146602;570;46017;-64
2022/07/29 04:37:10;;;;;;;;;18.75;18.00;;;;;26.90;55.04;100776.81;146606;563;46020;-65
2022/07/29 04:40:20;;;;;;;;;16.00;15.00;;;;;26.95;52.31;100773.19;146605;632;46030;-65
2022/07/29 04:43:12;;;;;;;;;18.50;15.75;;;;;27.09;53.68;100783.59;146607;572;46020;-65
2022/07/29 04:46:04;;;;;;;;;15.50;14.25;;;;;27.26;54.10;100788.69;146601;645;46925;-66
2022/07/29 04:48:56;;;;;;;;;17.75;15.00;;;;;27.44;53.92;100790.13;146606;655;46010;-66
2022/07/29 04:51:48;;;;;;;;;17.25;15.50;;;;;27.59;53.44;100791.66;146604;657;46014;-67
2022/07/29 04:54:41;;;;;;;;;17.75;15.00;;;;;27.79;53.33;100786.03;146605;585;47021;-66
2022/07/29 04:57:32;;;;;;;;;18.25;17.25;;;;;28.01;52.25;100784.69;146605;569;46017;-65
2022/07/29 05:00:25;;;;;;;;;17.00;15.00;;;;;28.28;52.12;100790.34;146606;564;46010;-64
2022/07/29 05:03:16;;;;;;;;;16.75;14.50;;;;;28.52;50.98;100805.88;146605;586;46016;-66
2022/07/29 05:06:09;;;;;;;;;17.25;17.25;;;;;28.75;50.21;100796.47;146606;583;46020;-66
2022/07/29 05:09:00;;;;;;;;;16.25;14.25;;;;;29.02;49.92;100804.81;146605;583;46012;-65
2022/07/29 05:11:58;;;;;;;;;16.50;14.25;;;;;29.30;49.22;100805.88;146604;690;46021;-65
2022/07/29 05:14:50;;;;;;;;;13.25;13.25;;;;;29.58;48.92;100800.72;146605;609;46016;-64
2022/07/29 05:17:43;;;;;;;;;13.75;13.50;;;;;29.87;47.94;100804.44;146606;603;46021;-65
2022/07/29 05:20:37;;;;;;;;;13.50;13.50;;;;;30.03;47.64;100812.91;146604;605;46016;-65
2022/07/29 05:23:29;;;;;;;;;15.25;14.75;;;;;30.17;48.11;100810.72;146606;565;46020;-67
2022/07/29 05:26:21;;;;;;;;;15.25;14.50;;;;;30.33;47.49;100811.19;146605;596;46926;-68
2022/07/29 05:29:13;;;;;;;;;18.50;16.50;;;;;30.48;45.99;100820.56;146606;641;46020;-66
2022/07/29 05:32:06;;;;;;;;;16.25;14.25;;;;;30.62;46.43;100821.03;146602;582;46017;-66
2022/07/29 05:35:18;;;;;;;;;14.25;13.50;;;;;30.83;45.81;100827.56;146606;619;46020;-67
2022/07/29 05:38:22;;;;;;;;;13.50;13.00;;;;;30.98;46.66;100821.72;146605;570;46012;-66
2022/07/29 05:41:14;;;;;;;;;11.75;10.00;;;;;31.02;46.80;100827.84;146605;597;46021;-65
2022/07/29 05:45:01;;;;;;;;;12.75;12.00;;;;;31.01;45.68;100834.16;146604;625;46029;-66
2022/07/29 05:47:54;;;;;;;;;12.75;11.00;;;;;31.05;47.19;100833.97;146605;631;46021;-67
2022/07/29 05:50:45;;;;;;;;;15.50;13.00;;;;;31.05;47.49;100839.34;146605;574;46012;-66
2022/07/29 05:53:41;;;;;;;;;11.00;10.50;;;;;31.06;47.34;100842.91;146606;643;46012;-67
2022/07/29 05:57:24;;;;;;;;;14.50;12.75;;;;;31.11;46.54;100846.31;146606;600;46012;-67
2022/07/29 06:00:19;;;;;;;;;13.25;10.00;;;;;31.16;47.78;100851.53;146604;583;46020;-66
2022/07/29 06:03:30;;;;;;;;;15.00;14.25;;;;;31.18;46.63;100857.69;146603;584;47012;-67
2022/07/29 06:06:34;;;;;;;;;13.25;12.50;;;;;31.18;47.32;100855.03;146606;583;46012;-67
2022/07/29 06:09:32;;;;;;;;;11.75;11.75;;;;;31.18;46.51;100855.88;146603;627;46017;-67
2022/07/29 06:12:24;;;;;;;;;14.75;13.75;;;;;31.21;47.57;100850.44;146607;580;47010;-66
2022/07/29 06:15:16;;;;;;;;;10.00;8.75;;;;;31.25;47.13;100851.25;146613;602;46012;-65
2022/07/29 06:18:13;;;;;;;;;9.75;9.25;;;;;31.26;47.15;100859.22;146614;649;47010;-67
2022/07/29 06:21:05;;;;;;;;;6.00;6.00;;;;;31.30;46.19;100854.63;146612;637;47014;-66
2022/07/29 06:23:57;;;;;;;;;9.25;8.75;;;;;31.30;47.24;100860.84;146614;618;46011;-66
2022/07/29 06:26:49;;;;;;;;;14.50;12.75;;;;;31.32;46.55;100859.94;146609;613;46924;-67
2022/07/29 06:29:41;;;;;;;;;11.50;10.75;;;;;31.38;46.69;100860.66;146612;582;46010;-67
2022/07/29 06:32:34;;;;;;;;;11.75;10.50;;;;;31.48;46.17;100856.72;146609;646;46016;-68
2022/07/29 06:35:26;;;;;;;;;11.00;10.00;;;;;31.56;45.81;100848.44;146616;591;46010;-66
2022/07/29 06:38:18;;;;;;;;;11.25;11.25;;;;;31.64;45.24;100854.41;146610;612;46924;-66
2022/07/29 06:41:15;;;;;;;;;10.50;10.00;;;;;31.72;44.59;100860.41;146615;605;46010;-64
2022/07/29 06:44:07;;;;;;;;;12.50;10.75;;;;;31.73;44.55;100864.81;146609;565;46923;-65
2022/07/29 06:47:00;;;;;;;;;9.00;7.50;;;;;31.74;44.38;100858.50;146616;647;46011;-65
2022/07/29 06:50:19;;;;;;;;;10.00;10.00;;;;;31.71;44.01;100863.13;146609;627;46016;-66
2022/07/29 06:57:22;;;;;;;;;11.50;9.50;;;;;31.70;43.33;100856.88;146614;602;45925;-66
2022/07/29 07:00:15;;;;;;;;;10.25;9.25;;;;;31.67;43.34;100853.44;146612;580;46020;-66
2022/07/29 07:03:08;;;;;;;;;8.75;8.00;;;;;31.66;43.96;100855.25;146611;689;46926;-66
2022/07/29 07:06:01;;;;;;;;;9.25;8.50;;;;;31.65;43.76;100858.88;146615;701;46010;-66
2022/07/29 07:09:00;;;;;;;;;8.00;8.00;;;;;31.66;44.36;100855.25;146609;717;46017;-66
2022/07/29 07:11:57;;;;;;;;;8.50;6.50;;;;;31.71;44.73;100861.34;146609;690;46020;-69
2022/07/29 07:14:49;;;;;;;;;9.50;7.50;;;;;31.70;44.89;100859.56;146606;655;46014;-69
2022/07/29 07:17:42;;;;;;;;;11.25;8.75;;;;;31.65;45.82;100852.59;146607;689;46010;-68
2022/07/29 07:20:34;;;;;;;;;8.75;8.75;;;;;31.66;45.67;100865.97;146605;720;46012;-68
2022/07/29 07:23:27;;;;;;;;;7.00;6.25;;;;;31.69;46.17;100862.31;146606;644;47010;-68
2022/07/29 07:26:19;;;;;;;;;7.25;7.00;;;;;31.75;45.81;100872.81;146604;642;46016;-69
2022/07/29 07:29:11;;;;;;;;;6.75;5.75;;;;;31.82;45.73;100873.47;146608;569;46010;-69
2022/07/29 07:32:03;;;;;;;;;7.50;6.50;;;;;31.86;45.97;100872.44;146607;604;46014;-69
2022/07/29 07:34:55;;;;;;;;;7.00;7.00;;;;;31.89;45.33;100875.06;146607;711;46020;-69
2022/07/29 07:37:49;;;;;;;;;5.00;5.00;;;;;31.86;44.80;100867.06;146605;671;46013;-69
2022/07/29 07:40:46;;;;;;;;;7.25;7.00;;;;;31.85;46.12;100868.88;146610;604;45020;-69
2022/07/29 07:48:13;;;;;;;;;8.00;8.00;;;;;31.79;44.87;100878.94;146610;492;46014;-73
2022/07/29 07:51:06;;;;;;;;;8.00;7.33;;;;;31.84;44.74;100883.22;146607;622;47016;-73
2022/07/29 07:53:59;;;;;;;;;10.00;7.75;;;;;31.93;44.61;100882.03;146607;688;47010;-73
2022/07/29 07:56:51;;;;;;;;;7.50;6.75;;;;;31.90;45.23;100887.50;146605;691;46030;-74
2022/07/29 07:59:46;;;;;;;;;7.50;6.50;;;;;31.96;45.33;100889.97;146605;652;46020;-72
2022/07/29 08:03:04;;;;;;;;;6.25;5.75;;;;;32.11;43.95;100883.22;146604;584;47012;-72
2022/07/29 08:05:56;;;;;;;;;7.00;6.50;;;;;32.16;44.48;100886.62;146610;654;45020;-73
2022/07/29 08:08:48;;;;;;;;;6.50;5.75;;;;;32.20;44.36;100890.94;146605;721;46014;-72
2022/07/29 08:11:40;;;;;;;;;6.25;5.25;;;;;32.29;44.17;100893.28;146610;625;46010;-71
2022/07/29 08:14:33;;;;;;;;;7.00;7.00;;;;;32.22;44.11;100890.91;146605;645;46017;-72
2022/07/29 08:17:26;;;;;;;;;7.50;7.50;;;;;32.17;44.54;100891.03;146610;573;46020;-71
2022/07/29 08:20:18;;;;;;;;;7.00;7.00;;;;;32.19;44.46;100890.06;146607;624;46016;-73
2022/07/29 08:23:22;;;;;;;;;6.75;4.50;;;;;32.25;44.10;100883.59;146611;657;45021;-70
2022/07/29 08:26:15;;;;;;;;;7.00;6.00;;;;;32.32;44.12;100882.44;146606;631;46016;-71
2022/07/29 08:29:07;;;;;;;;;8.00;7.50;;;;;32.45;44.87;100884.72;146608;645;46020;-69
2022/07/29 08:32:28;;;;;;;;;7.75;7.75;;;;;32.60;44.25;100886.81;146604;628;46016;-71
2022/07/29 08:35:19;;;;;;;;;9.50;9.50;;;;;32.73;43.15;100877.34;146608;685;47014;-71
2022/07/29 08:38:12;;;;;;;;;8.50;8.50;;;;;32.82;43.15;100877.00;146605;579;46013;-72
2022/07/29 08:41:07;;;;;;;;;8.50;8.00;;;;;32.85;43.02;100870.66;146608;705;47010;-71
2022/07/29 08:43:59;;;;;;;;;8.25;8.25;;;;;32.88;42.18;100868.72;146605;569;46017;-72
2022/07/29 08:46:57;;;;;;;;;8.50;6.25;;;;;32.87;42.76;100866.97;146608;570;46020;-72
2022/07/29 08:49:53;;;;;;;;;3.75;3.75;;;;;32.88;43.06;100857.09;146607;582;46012;-72
2022/07/29 08:52:46;;;;;;;;;6.50;5.50;;;;;32.90;42.84;100849.88;146602;570;46924;-72
2022/07/29 08:55:38;;;;;;;;;9.00;9.00;;;;;32.93;40.97;100857.81;146605;598;47012;-72
2022/07/29 08:58:37;;;;;;;;;7.75;7.00;;;;;32.94;42.35;100854.16;146608;701;46010;-71
2022/07/29 09:01:33;;;;;;;;;8.00;7.00;;;;;32.66;42.26;100801.53;146608;592;46012;-72
2022/07/29 09:04:31;;;;;;;;;6.75;6.75;;;;;32.96;41.80;100846.03;146606;660;46010;-72
2022/07/29 09:07:24;;;;;;;;;8.25;6.75;;;;;33.01;41.78;100850.31;146604;710;46017;-73
2022/07/29 09:10:17;;;;;;;;;6.00;5.25;;;;;33.04;41.16;100866.31;146607;686;46028;-72
2022/07/29 09:13:09;;;;;;;;;6.75;6.75;;;;;32.94;41.73;100859.53;146626;568;45034;-72
2022/07/29 09:16:02;;;;;;;;;9.00;8.50;;;;;32.89;42.03;100856.16;146631;717;45010;-72
2022/07/29 09:18:54;;;;;;;;;6.75;5.75;;;;;32.98;41.20;100861.19;146625;656;45016;-72
2022/07/29 09:21:58;;;;;;;;;5.00;4.25;;;;;33.06;39.78;100850.16;146626;675;45028;-72
2022/07/29 09:24:54;;;;;;;;;6.75;6.75;;;;;33.01;40.10;100855.69;146625;708;45016;-74
2022/07/29 09:28:17;;;;;;;;;7.00;7.00;;;;;32.92;42.00;100847.97;146628;609;45020;-73
2022/07/29 09:31:13;;;;;;;;;5.00;5.00;;;;;33.00;40.92;100840.53;146623;592;46922;-72
2022/07/29 09:34:07;;;;;;;;;6.25;6.00;;;;;33.11;41.23;100846.31;146630;626;45030;-72
2022/07/29 09:36:59;;;;;;;;;8.00;7.00;;;;;33.17;40.65;100847.88;146627;654;45016;-72
2022/07/29 09:39:52;;;;;;;;;7.50;6.00;;;;;33.17;40.01;100844.34;146629;722;45010;-73
2022/07/29 09:42:44;;;;;;;;;8.50;7.50;;;;;33.13;39.65;100846.28;146629;593;45923;-72
2022/07/29 09:45:37;;;;;;;;;8.75;8.50;;;;;33.13;39.85;100843.59;146624;556;46010;-71
2022/07/29 09:48:30;;;;;;;;;8.50;8.50;;;;;33.15;39.61;100843.50;146628;578;45016;-71
2022/07/29 09:51:23;;;;;;;;;7.00;6.75;;;;;33.17;38.80;100847.03;146628;630;45011;-73
2022/07/29 09:54:34;;;;;;;;;10.50;9.50;;;;;33.24;39.49;100848.50;146628;569;45016;-72
2022/07/29 09:57:29;;;;;;;;;8.75;8.75;;;;;33.22;38.84;100843.22;146631;643;45010;-72
2022/07/29 10:03:06;;;;;;;;;8.25;8.25;;;;;33.34;41.02;100845.41;146618;470;46020;-73
2022/07/29 10:06:29;;;;;;;;;7.50;6.75;;;;;31.65;41.02;100523.81;146629;665;45017;-72
2022/07/29 10:09:29;;;;;;;;;9.50;5.75;;;;;33.59;40.97;100832.78;146628;650;45020;-72
2022/07/29 10:12:22;;;;;;;;;7.75;7.00;;;;;33.67;39.98;100836.00;146611;571;46012;-72
2022/07/29 10:15:15;;;;;;;;;6.00;6.00;;;;;33.68;39.38;100843.13;146609;570;46021;-71
2022/07/29 10:18:07;;;;;;;;;4.75;4.75;;;;;33.63;38.78;100837.94;146605;636;46016;-72
2022/07/29 10:21:00;;;;;;;;;8.00;6.00;;;;;33.50;38.07;100837.59;146609;633;46020;-75
2022/07/29 10:24:08;;;;;;;;;10.00;9.00;;;;;33.43;40.58;100830.72;146603;576;47012;-73
2022/07/29 10:27:04;;;;;;;;;10.50;9.50;;;;;33.43;39.84;100828.00;146608;571;46010;-73
2022/07/29 10:29:58;;;;;;;;;8.50;8.00;;;;;33.49;38.33;100834.91;146605;581;46920;-73
2022/07/29 10:33:26;;;;;;;;;7.75;7.50;;;;;33.55;39.53;100826.63;146607;736;46020;-74
2022/07/29 10:36:57;;;;;;;;;8.75;8.75;;;;;33.56;39.70;100831.97;146606;628;46013;-74
2022/07/29 10:43:47;;;;;;;;;12.25;12.00;;;;;33.67;39.55;100820.72;146603;574;46016;-72
2022/07/29 10:46:42;;;;;;;;;9.25;8.50;;;;;33.74;36.83;100819.53;146606;631;46020;-72
2022/07/29 10:49:34;;;;;;;;;7.50;7.25;;;;;33.74;38.65;100811.47;146604;674;47012;-73
2022/07/29 10:52:28;;;;;;;;;7.00;6.75;;;;;33.80;39.75;100807.63;146609;605;46010;-73
2022/07/29 10:55:44;;;;;;;;;8.50;8.50;;;;;33.96;40.01;100810.53;146606;651;46014;-73
2022/07/29 10:58:36;;;;;;;;;11.25;10.50;;;;;34.09;40.39;100814.44;146607;580;46021;-73
2022/07/29 11:01:35;;;;;;;;;8.25;7.00;;;;;34.09;39.77;100795.59;146604;614;46015;-73
2022/07/29 11:05:04;;;;;;;;;8.75;8.25;;;;;34.04;40.71;100797.62;146607;741;46021;-73
2022/07/29 11:08:25;;;;;;;;;9.25;8.25;;;;;34.03;40.77;100796.75;146605;566;46012;-73
2022/07/29 11:11:43;;;;;;;;;9.25;8.75;;;;;33.01;41.05;100631.88;146606;689;47012;-72
2022/07/29 11:15:01;;;;;;;;;6.50;6.50;;;;;33.92;40.74;100804.38;146605;705;46016;-72
2022/07/29 11:18:08;;;;;;;;;5.50;5.00;;;;;33.85;42.36;100800.22;146610;663;47014;-72
2022/07/29 11:21:00;;;;;;;;;4.25;4.25;;;;;33.87;42.12;100792.09;146607;616;46013;-72
2022/07/29 11:23:52;;;;;;;;;8.25;7.75;;;;;33.92;40.00;100798.12;146608;581;46010;-72
2022/07/29 11:26:46;;;;;;;;;9.25;9.25;;;;;33.88;40.00;100789.34;146605;569;46919;-71
2022/07/29 11:29:42;;;;;;;;;10.00;8.75;;;;;33.80;40.36;100787.00;146606;564;46021;-72
2022/07/29 11:32:46;;;;;;;;;8.50;8.50;;;;;33.80;40.96;100776.25;146600;577;48919;-71
2022/07/29 11:35:39;;;;;;;;;8.50;8.25;;;;;33.95;40.43;100782.72;146606;594;46020;-73
2022/07/29 11:38:32;;;;;;;;;8.00;8.00;;;;;34.09;40.21;100782.16;146603;570;46016;-69
2022/07/29 11:41:36;;;;;;;;;7.75;7.75;;;;;34.14;40.47;100772.03;146607;690;47010;-70
2022/07/29 11:45:01;;;;;;;;;10.00;9.75;;;;;33.02;40.09;100607.66;146606;581;45920;-69
2022/07/29 11:48:00;;;;;;;;;7.00;7.00;;;;;33.84;41.02;100785.03;146607;581;46020;-69
2022/07/29 11:50:57;;;;;;;;;7.50;6.50;;;;;33.55;41.81;100784.50;146606;668;46013;-74
2022/07/29 11:53:53;;;;;;;;;8.00;8.00;;;;;33.45;43.00;100791.16;146610;709;46014;-76
2022/07/29 11:56:54;;;;;;;;;7.50;7.00;;;;;33.46;42.03;100781.28;146605;593;47012;-76
2022/07/29 11:59:48;;;;;;;;;7.75;7.00;;;;;33.51;41.87;100771.25;146610;580;45020;-75
2022/07/29 12:02:47;;;;;;;;;9.75;6.50;;;;;33.63;41.21;100778.78;146606;680;45919;-75
2022/07/29 12:05:52;;;;;;;;;6.25;6.25;;;;;33.67;41.35;100766.94;146610;616;45021;-76
2022/07/29 12:08:46;;;;;;;;;9.00;7.00;;;;;33.78;40.08;100763.81;146606;604;46012;-75
2022/07/29 12:11:38;;;;;;;;;7.50;7.00;;;;;33.87;39.01;100762.50;146606;589;46020;-76
2022/07/29 12:18:12;;;;;;;;;5.50;5.50;;;;;33.99;40.17;100759.28;146608;568;46020;-73
2022/07/29 12:21:08;;;;;;;;;9.00;7.00;;;;;33.97;39.81;100758.47;146604;625;46016;-74
2022/07/29 12:24:01;;;;;;;;;6.25;6.25;;;;;33.91;40.17;100764.97;146609;575;46010;-75
2022/07/29 12:27:02;;;;;;;;;8.00;8.00;;;;;33.87;41.16;100759.81;146604;588;46016;-75
2022/07/29 12:30:15;;;;;;;;;8.00;8.00;;;;;33.82;40.58;100759.16;146607;627;46020;-76
2022/07/29 12:33:28;;;;;;;;;8.00;8.00;;;;;33.75;41.07;100751.34;146605;670;47012;-75
2022/07/29 12:36:21;;;;;;;;;8.00;8.00;;;;;33.70;41.23;100749.81;146608;570;46020;-73
2022/07/29 12:39:26;;;;;;;;;8.25;8.25;;;;;33.67;40.79;100745.44;146602;593;46016;-75
2022/07/29 12:42:20;;;;;;;;;9.50;7.00;;;;;33.74;39.80;100746.03;146607;597;46021;-76
2022/07/29 12:45:16;;;;;;;;;7.50;7.00;;;;;33.77;38.63;100741.41;146606;563;46012;-75
2022/07/29 12:48:09;;;;;;;;;7.00;7.00;;;;;33.81;39.90;100739.47;146610;577;45020;-77
2022/07/29 12:51:09;;;;;;;;;8.00;8.00;;;;;33.79;39.39;100726.06;146603;701;46017;-74
2022/07/29 12:54:16;;;;;;;;;7.75;7.00;;;;;33.66;39.89;100686.38;146611;674;46010;-75
2022/07/29 12:57:23;;;;;;;;;7.00;7.00;;;;;33.98;39.62;100734.16;146606;635;46013;-75
2022/07/29 13:00:16;;;;;;;;;7.50;7.00;;;;;33.99;39.08;100727.00;146609;730;45020;-71
2022/07/29 13:07:14;;;;;;;;;8.00;7.25;;;;;33.93;39.98;100727.28;146605;595;46020;-68
2022/07/29 13:10:23;;;;;;;;;5.50;5.50;;;;;33.92;39.78;100731.75;146606;577;46017;-67
2022/07/29 13:13:17;;;;;;;;;10.25;7.00;;;;;33.87;40.44;100722.16;146628;581;45020;-67
2022/07/29 13:16:11;;;;;;;;;8.25;8.25;;;;;33.83;40.97;100720.53;146624;622;45016;-67
2022/07/29 13:19:17;;;;;;;;;7.50;6.75;;;;;33.76;39.16;100718.13;146629;611;45021;-69
2022/07/29 13:22:32;;;;;;;;;7.50;7.50;;;;;33.31;39.49;100645.78;146627;627;45921;-68
2022/07/29 13:33:23;;;;;;;;;5.50;5.50;;;;;33.59;40.09;100725.22;146622;582;46013;-68
2022/07/29 13:36:15;;;;;;;;;8.00;6.50;;;;;33.58;40.40;100727.03;146627;637;45917;-69
2022/07/29 13:39:07;;;;;;;;;5.50;5.50;;;;;33.56;38.89;100723.53;146628;707;45020;-69
2022/07/29 13:42:00;;;;;;;;;8.75;7.75;;;;;33.55;40.10;100717.31;146627;597;45019;-67
2022/07/29 13:44:53;;;;;;;;;8.00;6.75;;;;;33.59;40.61;100727.91;146632;583;45010;-67
2022/07/29 13:47:45;;;;;;;;;7.25;6.75;;;;;33.56;39.84;100718.16;146627;574;45036;-68
2022/07/29 13:50:37;;;;;;;;;6.75;6.75;;;;;33.57;38.72;100707.34;146629;651;45021;-68
2022/07/29 13:53:29;;;;;;;;;6.75;6.75;;;;;32.70;39.85;100552.59;146625;626;45016;-71
2022/07/29 13:56:21;;;;;;;;;7.00;7.00;;;;;33.63;38.18;100700.81;146628;570;45021;-70
2022/07/29 13:59:13;;;;;;;;;6.75;6.75;;;;;33.64;38.27;100710.63;146628;674;44919;-71
2022/07/29 14:02:05;;;;;;;;;6.75;6.75;;;;;33.64;38.82;100710.63;146627;566;46010;-72
2022/07/29 14:05:03;;;;;;;;;6.00;6.00;;;;;33.66;39.90;100702.50;146627;727;45920;-71
2022/07/29 14:07:55;;;;;;;;;6.50;6.00;;;;;33.67;40.30;100705.09;146628;577;45020;-72
2022/07/29 14:10:47;;;;;;;;;5.00;5.00;;;;;33.68;40.67;100706.00;146627;566;46920;-73
2022/07/29 14:13:40;;;;;;;;;4.75;4.75;;;;;33.66;38.83;100705.19;146605;601;46020;-72
2022/07/29 14:16:32;;;;;;;;;6.00;5.75;;;;;33.67;40.08;100706.91;146608;668;46012;-70